Time;durP1;ratioP1;P1;durP2;ratioP2;P2;SDS_P1;SDS_P2;PMS_P1;PMS_P2;Temp;Humidity;BMP_temperature;BMP_pressure;BME280_temperature;BME280_humidity;BME280_pressure;Samples;Min_cycle;Max_cycle;Signal;HPM_P1;HPM_P2
2022/09/11 00:03:53;;;;;;;2.83;1.80;;;;;;;;;;8314195;28;20478;-60
2022/09/11 00:07:55;;;;;;;3.30;1.83;;;;;;;;;;8316096;28;20025;-59
2022/09/11 00:11:55;;;;;;;4.82;2.30;;;;;;;;;;8315499;28;20025;-60
2022/09/11 00:15:56;;;;;;;3.90;1.90;;;;;;;;;;8317931;28;20026;-60
2022/09/11 00:19:56;;;;;;;3.53;2.10;;;;;;;;;;8316689;28;20351;-59
2022/09/11 00:23:56;;;;;;;2.38;2.03;;;;;;;;;;8314060;28;20147;-59
2022/09/11 00:27:56;;;;;;;2.97;2.43;;;;;;;;;;8316436;28;20025;-60
2022/09/11 00:31:57;;;;;;;4.10;2.65;;;;;;;;;;8317176;28;20048;-59
2022/09/11 00:35:59;;;;;;;3.20;2.60;;;;;;;;;;8319332;28;20286;-59
2022/09/11 00:39:59;;;;;;;2.97;2.40;;;;;;;;;;8317275;28;20258;-59
2022/09/11 00:44:04;;;;;;;3.67;2.60;;;;;;;;;;8318241;28;20063;-59
2022/09/11 00:48:04;;;;;;;3.00;2.10;;;;;;;;;;8317946;28;20525;-59
2022/09/11 00:52:17;;;;;;;2.50;2.30;;;;;;;;;;8318088;28;20476;-59
2022/09/11 00:56:17;;;;;;;3.00;2.72;;;;;;;;;;8319846;28;20041;-60
2022/09/11 01:00:18;;;;;;;3.13;2.50;;;;;;;;;;8323275;28;20436;-60
2022/09/11 01:04:19;;;;;;;4.72;2.40;;;;;;;;;;8321706;28;20021;-60
2022/09/11 01:08:19;;;;;;;3.17;2.33;;;;;;;;;;8320351;28;20427;-60
2022/09/11 01:12:40;;;;;;;4.53;2.55;;;;;;;;;;8319526;28;20655;-59
2022/09/11 01:16:48;;;;;;;4.25;2.97;;;;;;;;;;8318332;28;20047;-60
2022/09/11 01:20:48;;;;;;;5.00;2.85;;;;;;;;;;8320791;28;20021;-59
2022/09/11 01:24:55;;;;;;;6.53;2.75;;;;;;;;;;8320711;28;20472;-59
2022/09/11 01:29:16;;;;;;;4.18;2.80;;;;;;;;;;8321508;28;20021;-59
2022/09/11 01:33:23;;;;;;;5.03;2.97;;;;;;;;;;8321130;28;20599;-59
2022/09/11 01:37:29;;;;;;;4.53;2.95;;;;;;;;;;8327866;28;20420;-60
2022/09/11 01:41:44;;;;;;;4.10;2.92;;;;;;;;;;8327586;28;20123;-59
2022/09/11 01:45:46;;;;;;;4.38;2.75;;;;;;;;;;8326144;28;20509;-59
2022/09/11 01:49:55;;;;;;;3.45;2.70;;;;;;;;;;8329678;28;20033;-59
2022/09/11 01:53:55;;;;;;;5.38;3.30;;;;;;;;;;8324454;28;20029;-60
2022/09/11 01:58:02;;;;;;;4.65;3.17;;;;;;;;;;8327222;28;20040;-60
2022/09/11 02:02:08;;;;;;;3.67;2.80;;;;;;;;;;8322126;28;20084;-60
2022/09/11 02:06:13;;;;;;;4.45;3.40;;;;;;;;;;8329334;28;20143;-60
2022/09/11 02:10:16;;;;;;;4.57;3.10;;;;;;;;;;8326639;28;20086;-60
2022/09/11 02:14:28;;;;;;;3.60;3.30;;;;;;;;;;8324690;28;20029;-59
2022/09/11 02:18:34;;;;;;;3.78;3.40;;;;;;;;;;8329699;28;20950;-60
2022/09/11 02:22:35;;;;;;;6.40;3.70;;;;;;;;;;8325867;28;20037;-60
2022/09/11 02:26:38;;;;;;;4.05;3.75;;;;;;;;;;8327033;28;20029;-60
2022/09/11 02:30:39;;;;;;;7.22;4.00;;;;;;;;;;8326091;28;20056;-60
2022/09/11 02:34:40;;;;;;;4.20;3.80;;;;;;;;;;8325844;28;20117;-60
2022/09/11 02:38:53;;;;;;;6.05;4.32;;;;;;;;;;8326652;28;20036;-60
2022/09/11 02:42:53;;;;;;;9.93;4.60;;;;;;;;;;8327104;28;20562;-60
2022/09/11 02:46:56;;;;;;;6.32;3.90;;;;;;;;;;8324122;28;20045;-59
2022/09/11 02:51:22;;;;;;;7.47;4.28;;;;;;;;;;8326540;28;20106;-60
2022/09/11 02:55:38;;;;;;;5.82;4.20;;;;;;;;;;8326733;28;20037;-60
2022/09/11 02:59:41;;;;;;;5.82;4.30;;;;;;;;;;8322772;28;20025;-60
2022/09/11 03:03:42;;;;;;;8.07;4.57;;;;;;;;;;8326213;28;20037;-60
2022/09/11 03:07:42;;;;;;;6.40;4.18;;;;;;;;;;8326058;28;20174;-59
2022/09/11 03:11:43;;;;;;;5.20;4.70;;;;;;;;;;8325915;28;20022;-60
2022/09/11 03:15:43;;;;;;;5.75;4.15;;;;;;;;;;8325246;28;20071;-60
2022/09/11 03:19:43;;;;;;;6.25;4.43;;;;;;;;;;8327971;28;20035;-60
2022/09/11 03:23:44;;;;;;;7.15;4.70;;;;;;;;;;8324789;28;20065;-59
2022/09/11 03:27:44;;;;;;;6.65;4.53;;;;;;;;;;8326564;28;20672;-60
2022/09/11 03:31:44;;;;;;;5.82;4.45;;;;;;;;;;8325815;28;20580;-60
2022/09/11 03:35:46;;;;;;;6.20;5.10;;;;;;;;;;8324954;28;20756;-60
2022/09/11 03:39:47;;;;;;;7.57;4.70;;;;;;;;;;8324426;28;21178;-60
2022/09/11 03:43:47;;;;;;;9.75;4.55;;;;;;;;;;8322689;28;20025;-59
2022/09/11 03:47:47;;;;;;;5.85;4.43;;;;;;;;;;8320743;28;20095;-59
2022/09/11 03:51:47;;;;;;;6.15;4.57;;;;;;;;;;8321903;28;20043;-59
2022/09/11 03:55:48;;;;;;;5.77;4.40;;;;;;;;;;8326703;28;20037;-59
2022/09/11 03:59:49;;;;;;;7.32;5.07;;;;;;;;;;8324124;28;20316;-60
2022/09/11 04:03:49;;;;;;;7.38;5.20;;;;;;;;;;8320224;28;20034;-60
2022/09/11 04:07:51;;;;;;;8.35;4.05;;;;;;;;;;8325497;28;20029;-60
2022/09/11 04:11:51;;;;;;;5.40;4.90;;;;;;;;;;8324968;28;20739;-59
2022/09/11 04:15:51;;;;;;;5.45;4.95;;;;;;;;;;8323605;28;20033;-59
2022/09/11 04:19:52;;;;;;;6.47;5.10;;;;;;;;;;8323716;28;20028;-59
2022/09/11 04:23:54;;;;;;;5.90;4.97;;;;;;;;;;8323514;28;20682;-60
2022/09/11 04:27:55;;;;;;;5.40;4.88;;;;;;;;;;8321255;28;20033;-60
2022/09/11 04:31:56;;;;;;;10.00;5.53;;;;;;;;;;8321918;28;20390;-60
2022/09/11 04:35:56;;;;;;;7.70;5.03;;;;;;;;;;8326380;28;20691;-60
2022/09/11 04:39:56;;;;;;;8.63;6.03;;;;;;;;;;8324252;28;20033;-59
2022/09/11 04:43:57;;;;;;;6.47;5.40;;;;;;;;;;8326417;28;20897;-60
2022/09/11 04:48:00;;;;;;;7.25;5.20;;;;;;;;;;8325012;28;20402;-60
2022/09/11 04:52:04;;;;;;;7.40;5.13;;;;;;;;;;8324694;28;20013;-59
2022/09/11 04:56:06;;;;;;;9.38;5.90;;;;;;;;;;8326432;28;20182;-60
2022/09/11 05:00:07;;;;;;;5.18;4.68;;;;;;;;;;8318681;28;21088;-60
2022/09/11 05:04:07;;;;;;;5.78;5.15;;;;;;;;;;8326021;28;20063;-59
2022/09/11 05:08:07;;;;;;;6.22;4.95;;;;;;;;;;8321928;28;20020;-59
2022/09/11 05:12:08;;;;;;;8.82;5.07;;;;;;;;;;8325406;28;20070;-60
2022/09/11 05:16:12;;;;;;;7.80;6.13;;;;;;;;;;8321311;28;20043;-60
2022/09/11 05:20:12;;;;;;;8.68;6.68;;;;;;;;;;8320038;28;20038;-59
2022/09/11 05:24:13;;;;;;;6.38;5.78;;;;;;;;;;8324702;28;20052;-59
2022/09/11 05:28:13;;;;;;;7.10;6.40;;;;;;;;;;8324176;28;20031;-60
2022/09/11 05:32:13;;;;;;;10.05;6.50;;;;;;;;;;8321074;28;20033;-60
2022/09/11 05:36:14;;;;;;;8.05;6.13;;;;;;;;;;8323981;28;20435;-58
2022/09/11 05:40:14;;;;;;;8.13;6.07;;;;;;;;;;8324213;28;20037;-59
2022/09/11 05:44:15;;;;;;;8.13;6.07;;;;;;;;;;8320891;28;20136;-59
2022/09/11 05:48:15;;;;;;;6.82;5.93;;;;;;;;;;8324603;28;20862;-59
2022/09/11 05:52:15;;;;;;;7.63;6.10;;;;;;;;;;8321539;28;20519;-59
2022/09/11 05:56:16;;;;;;;6.77;6.17;;;;;;;;;;8324643;28;20029;-60
2022/09/11 06:00:17;;;;;;;6.55;5.85;;;;;;;;;;8321591;28;20319;-59
2022/09/11 06:04:17;;;;;;;7.70;6.13;;;;;;;;;;8321875;28;20082;-59
2022/09/11 06:08:18;;;;;;;9.70;6.50;;;;;;;;;;8322367;28;20486;-60
2022/09/11 06:12:18;;;;;;;6.97;6.22;;;;;;;;;;8323671;28;20770;-59
2022/09/11 06:16:19;;;;;;;7.18;5.70;;;;;;;;;;8317165;28;20041;-60
2022/09/11 06:20:19;;;;;;;5.47;4.85;;;;;;;;;;8321719;28;20025;-60
2022/09/11 06:24:19;;;;;;;5.28;4.53;;;;;;;;;;8326069;28;20527;-60
2022/09/11 06:28:21;;;;;;;6.40;4.78;;;;;;;;;;8328311;28;20057;-60
2022/09/11 06:32:21;;;;;;;6.35;4.95;;;;;;;;;;8321339;28;20040;-60
2022/09/11 06:36:25;;;;;;;6.35;5.63;;;;;;;;;;8326675;28;20025;-60
2022/09/11 06:40:25;;;;;;;6.63;5.22;;;;;;;;;;8327771;28;20020;-60
2022/09/11 06:44:26;;;;;;;5.07;4.53;;;;;;;;;;8325192;28;20044;-60
2022/09/11 06:48:26;;;;;;;5.72;5.18;;;;;;;;;;8324812;28;20048;-61
2022/09/11 06:52:26;;;;;;;6.15;5.30;;;;;;;;;;8324997;28;20025;-61
2022/09/11 06:56:27;;;;;;;6.35;5.40;;;;;;;;;;8322590;28;20033;-60
2022/09/11 07:00:28;;;;;;;6.95;5.60;;;;;;;;;;8327135;28;20048;-60
2022/09/11 07:04:28;;;;;;;9.32;5.90;;;;;;;;;;8322958;28;20886;-60
2022/09/11 07:08:28;;;;;;;8.05;6.30;;;;;;;;;;8323591;28;20055;-60
2022/09/11 07:12:30;;;;;;;9.77;5.80;;;;;;;;;;8325488;28;20032;-59
2022/09/11 07:16:31;;;;;;;5.05;4.55;;;;;;;;;;8326800;28;20060;-61
2022/09/11 07:20:31;;;;;;;7.30;5.20;;;;;;;;;;8326717;28;20026;-60
2022/09/11 07:24:32;;;;;;;4.75;4.28;;;;;;;;;;8325139;28;20583;-64
2022/09/11 07:28:33;;;;;;;6.50;4.57;;;;;;;;;;8325365;28;20017;-60
2022/09/11 07:32:33;;;;;;;6.47;5.38;;;;;;;;;;8322698;28;20040;-61
2022/09/11 07:36:34;;;;;;;6.22;5.43;;;;;;;;;;8330058;28;20021;-59
2022/09/11 07:40:34;;;;;;;6.38;5.68;;;;;;;;;;8325801;28;20025;-60
2022/09/11 07:44:35;;;;;;;8.68;4.60;;;;;;;;;;8323848;28;20048;-60
2022/09/11 07:48:36;;;;;;;6.50;5.20;;;;;;;;;;8325408;28;20037;-59
2022/09/11 07:52:37;;;;;;;6.18;5.57;;;;;;;;;;8321940;28;20017;-60
2022/09/11 07:56:37;;;;;;;7.25;5.82;;;;;;;;;;8328519;28;20083;-61
2022/09/11 08:00:37;;;;;;;5.60;5.00;;;;;;;;;;8324858;28;20094;-61
2022/09/11 08:04:37;;;;;;;4.95;4.45;;;;;;;;;;8326303;28;20643;-60
2022/09/11 08:08:38;;;;;;;5.63;5.03;;;;;;;;;;8339064;28;20021;-61
2022/09/11 08:12:38;;;;;;;6.53;5.43;;;;;;;;;;8325516;28;20325;-59
2022/09/11 08:16:39;;;;;;;8.85;5.60;;;;;;;;;;8326512;28;20162;-60
2022/09/11 08:20:39;;;;;;;10.18;5.80;;;;;;;;;;8322317;28;20049;-60
2022/09/11 08:24:40;;;;;;;7.35;6.03;;;;;;;;;;8325704;28;20127;-61
2022/09/11 08:28:43;;;;;;;6.63;5.38;;;;;;;;;;8323393;28;20020;-60
2022/09/11 08:32:44;;;;;;;5.53;4.53;;;;;;;;;;8322739;28;20029;-60
2022/09/11 08:36:44;;;;;;;5.82;4.30;;;;;;;;;;8320589;28;20756;-60
2022/09/11 08:40:45;;;;;;;5.45;4.00;;;;;;;;;;8321307;28;20032;-61
2022/09/11 08:44:49;;;;;;;7.30;4.10;;;;;;;;;;8324177;28;20511;-60
2022/09/11 08:49:00;;;;;;;5.43;3.85;;;;;;;;;;8324253;28;20033;-61
2022/09/11 08:53:01;;;;;;;5.38;4.07;;;;;;;;;;8319902;28;20028;-60
2022/09/11 08:57:15;;;;;;;6.32;4.30;;;;;;;;;;8327905;28;20032;-60
2022/09/11 09:01:35;;;;;;;6.03;4.00;;;;;;;;;;8321688;28;20496;-67
2022/09/11 09:05:49;;;;;;;7.18;3.88;;;;;;;;;;8324934;28;20039;-61
2022/09/11 09:09:49;;;;;;;;;;;;;;;;;;8325932;28;20028;-60
2022/09/11 09:13:58;;;;;;;5.13;3.85;;;;;;;;;;8325385;28;19916;-60
2022/09/11 09:18:01;;;;;;;5.45;4.50;;;;;;;;;;8318279;28;20480;-61
2022/09/11 09:22:22;;;;;;;5.30;4.47;;;;;;;;;;8316888;28;20104;-60
2022/09/11 09:26:25;;;;;;;5.68;4.20;;;;;;;;;;8323392;28;20380;-58
2022/09/11 09:30:27;;;;;;;4.25;3.72;;;;;;;;;;8323691;28;20047;-59
2022/09/11 09:34:30;;;;;;;4.72;3.40;;;;;;;;;;8321133;28;20478;-58
2022/09/11 09:38:30;;;;;;;4.88;3.80;;;;;;;;;;8319690;28;20712;-58
2022/09/11 09:42:40;;;;;;;5.30;3.80;;;;;;;;;;8321491;28;20596;-58
2022/09/11 09:46:41;;;;;;;6.65;4.28;;;;;;;;;;8322359;28;21013;-59
2022/09/11 09:50:45;;;;;;;4.93;3.80;;;;;;;;;;8321639;28;20021;-59
2022/09/11 09:54:59;;;;;;;4.25;3.50;;;;;;;;;;8322778;28;20929;-60
2022/09/11 09:59:14;;;;;;;3.35;3.05;;;;;;;;;;8344848;28;20032;-59
2022/09/11 10:03:22;;;;;;;4.57;3.65;;;;;;;;;;8323159;28;20504;-60
2022/09/11 10:07:23;;;;;;;3.30;3.00;;;;;;;;;;8326055;28;20905;-59
2022/09/11 10:11:27;;;;;;;4.65;2.83;;;;;;;;;;8327786;28;20474;-59
2022/09/11 10:15:28;;;;;;;3.67;2.67;;;;;;;;;;8325367;28;20037;-60
2022/09/11 10:19:39;;;;;;;4.13;2.90;;;;;;;;;;8326246;28;20031;-60
2022/09/11 10:23:49;;;;;;;3.50;2.35;;;;;;;;;;8328813;28;20097;-60
2022/09/11 10:27:55;;;;;;;2.85;2.30;;;;;;;;;;8331181;28;20169;-60
2022/09/11 10:31:56;;;;;;;7.35;2.53;;;;;;;;;;8328223;28;20674;-60
2022/09/11 10:35:59;;;;;;;4.00;2.60;;;;;;;;;;8324624;28;20120;-59
2022/09/11 10:40:07;;;;;;;2.38;2.10;;;;;;;;;;8326074;28;20040;-59
2022/09/11 10:44:13;;;;;;;4.35;2.28;;;;;;;;;;8331130;28;20171;-59
2022/09/11 10:48:14;;;;;;;3.10;1.95;;;;;;;;;;8325637;28;20032;-59
2022/09/11 10:52:14;;;;;;;3.08;2.25;;;;;;;;;;8327566;28;20025;-59
2022/09/11 10:56:14;;;;;;;3.15;2.33;;;;;;;;;;8328948;28;20029;-59
2022/09/11 11:00:18;;;;;;;3.05;2.20;;;;;;;;;;8325483;28;20782;-59
2022/09/11 11:04:20;;;;;;;3.42;1.92;;;;;;;;;;8327892;28;20074;-60
2022/09/11 11:08:20;;;;;;;3.38;2.30;;;;;;;;;;8328888;28;20108;-59
2022/09/11 11:12:31;;;;;;;4.85;2.40;;;;;;;;;;8322050;28;20029;-59
2022/09/11 11:16:34;;;;;;;2.00;1.75;;;;;;;;;;8324100;28;20689;-59
2022/09/11 11:20:41;;;;;;;4.40;1.90;;;;;;;;;;8324826;28;20035;-60
2022/09/11 11:24:53;;;;;;;3.97;2.42;;;;;;;;;;8326926;28;20042;-60
2022/09/11 11:28:53;;;;;;;2.90;2.25;;;;;;;;;;8323833;28;20029;-59
2022/09/11 11:33:09;;;;;;;2.53;2.30;;;;;;;;;;8325531;28;20091;-59
2022/09/11 11:37:20;;;;;;;2.00;1.90;;;;;;;;;;8322524;28;20275;-60
2022/09/11 11:41:22;;;;;;;3.83;1.92;;;;;;;;;;8331577;28;20039;-60
2022/09/11 11:45:42;;;;;;;2.53;2.10;;;;;;;;;;8322815;28;20507;-60
2022/09/11 11:49:42;;;;;;;3.65;2.05;;;;;;;;;;8323246;28;20033;-60
2022/09/11 11:53:45;;;;;;;3.30;2.20;;;;;;;;;;8323713;28;20174;-60
2022/09/11 11:57:48;;;;;;;2.80;2.05;;;;;;;;;;8323713;28;20021;-60
2022/09/11 12:01:58;;;;;;;2.60;2.20;;;;;;;;;;8322860;28;20039;-59
2022/09/11 12:05:59;;;;;;;2.72;2.00;;;;;;;;;;8324550;28;20013;-59
2022/09/11 12:10:00;;;;;;;2.20;1.90;;;;;;;;;;8322589;28;20457;-59
2022/09/11 12:14:00;;;;;;;1.73;1.60;;;;;;;;;;8326192;28;20313;-59
2022/09/11 12:18:00;;;;;;;1.75;1.50;;;;;;;;;;8323238;28;20041;-59
2022/09/11 12:22:05;;;;;;;2.75;1.50;;;;;;;;;;8322739;28;20048;-59
2022/09/11 12:26:08;;;;;;;2.40;1.75;;;;;;;;;;8322796;28;20036;-59
2022/09/11 12:30:19;;;;;;;2.67;1.80;;;;;;;;;;8321189;28;20104;-60
2022/09/11 12:34:23;;;;;;;2.33;1.67;;;;;;;;;;8322494;28;20583;-60
2022/09/11 12:38:29;;;;;;;3.63;1.80;;;;;;;;;;8323337;28;20016;-59
2022/09/11 12:42:30;;;;;;;1.75;1.60;;;;;;;;;;8323024;28;20395;-59
2022/09/11 12:46:33;;;;;;;2.00;1.90;;;;;;;;;;8319104;28;20045;-59
2022/09/11 12:50:34;;;;;;;1.95;1.77;;;;;;;;;;8323384;28;20040;-59
2022/09/11 12:54:38;;;;;;;2.42;1.65;;;;;;;;;;8323780;28;20017;-59
2022/09/11 12:58:40;;;;;;;1.88;1.70;;;;;;;;;;8323947;28;20087;-59
2022/09/11 13:02:43;;;;;;;2.38;1.67;;;;;;;;;;8317557;28;20071;-59
2022/09/11 13:06:46;;;;;;;1.77;1.67;;;;;;;;;;8322624;28;20031;-60
2022/09/11 13:10:46;;;;;;;3.53;1.40;;;;;;;;;;8322283;28;20047;-59
2022/09/11 13:14:48;;;;;;;1.95;1.38;;;;;;;;;;8322183;28;20040;-59
2022/09/11 13:18:48;;;;;;;1.50;1.40;;;;;;;;;;8321468;28;20494;-60
2022/09/11 13:22:50;;;;;;;1.35;1.25;;;;;;;;;;8322941;28;20028;-59
2022/09/11 13:27:01;;;;;;;2.97;1.40;;;;;;;;;;8323570;28;20591;-60
2022/09/11 13:31:02;;;;;;;1.40;1.30;;;;;;;;;;8326441;28;20033;-59
2022/09/11 13:35:06;;;;;;;2.22;1.48;;;;;;;;;;8329290;28;20748;-59
2022/09/11 13:39:07;;;;;;;1.30;1.20;;;;;;;;;;8327218;28;20507;-59
2022/09/11 13:43:13;;;;;;;3.90;1.25;;;;;;;;;;8329839;28;20531;-60
2022/09/11 13:47:24;;;;;;;2.95;1.23;;;;;;;;;;8328485;28;20804;-59
2022/09/11 13:51:28;;;;;;;2.45;1.20;;;;;;;;;;8330736;28;20093;-59
2022/09/11 13:55:28;;;;;;;1.80;1.10;;;;;;;;;;8324686;28;20485;-59
2022/09/11 13:59:35;;;;;;;2.05;1.20;;;;;;;;;;8331101;28;20013;-59
2022/09/11 14:03:35;;;;;;;0.90;0.90;;;;;;;;;;8328194;28;20040;-59
2022/09/11 14:07:50;;;;;;;1.33;1.05;;;;;;;;;;8329819;28;20071;-59
2022/09/11 14:11:51;;;;;;;0.90;0.90;;;;;;;;;;8328187;28;20071;-58
2022/09/11 14:15:54;;;;;;;1.58;0.90;;;;;;;;;;8333240;28;20037;-59
2022/09/11 14:19:57;;;;;;;1.38;1.00;;;;;;;;;;8324440;28;20425;-59
2022/09/11 14:23:58;;;;;;;1.10;1.00;;;;;;;;;;8328719;28;20036;-59
2022/09/11 14:27:58;;;;;;;2.15;1.00;;;;;;;;;;8328925;28;20048;-58
2022/09/11 14:32:17;;;;;;;1.17;1.00;;;;;;;;;;8325428;28;20026;-58
2022/09/11 14:36:18;;;;;;;2.15;1.10;;;;;;;;;;8328898;28;20375;-59
2022/09/11 14:40:18;;;;;;;1.42;1.00;;;;;;;;;;8326588;28;20481;-58
2022/09/11 14:44:20;;;;;;;0.97;0.97;;;;;;;;;;8330041;28;20077;-58
2022/09/11 14:48:21;;;;;;;1.50;1.00;;;;;;;;;;8327509;28;20408;-60
2022/09/11 14:52:23;;;;;;;3.67;1.27;;;;;;;;;;8326283;28;20043;-60
2022/09/11 14:56:23;;;;;;;1.23;1.02;;;;;;;;;;8325135;28;20071;-58
2022/09/11 15:00:23;;;;;;;1.10;1.00;;;;;;;;;;8324441;28;20044;-59
2022/09/11 15:04:24;;;;;;;1.58;0.95;;;;;;;;;;8325712;28;20120;-58
2022/09/11 15:08:24;;;;;;;1.00;1.00;;;;;;;;;;8326293;28;20053;-59
2022/09/11 15:12:28;;;;;;;2.33;1.08;;;;;;;;;;8327166;28;20262;-59
2022/09/11 15:16:28;;;;;;;1.27;0.90;;;;;;;;;;8325750;28;20171;-59
2022/09/11 15:20:28;;;;;;;2.30;1.00;;;;;;;;;;8324912;28;20025;-59
2022/09/11 15:24:28;;;;;;;2.73;1.10;;;;;;;;;;8329816;28;20036;-59
2022/09/11 15:28:30;;;;;;;1.05;0.90;;;;;;;;;;8330561;28;20059;-59
2022/09/11 15:32:30;;;;;;;0.95;0.77;;;;;;;;;;8326837;28;20032;-59
2022/09/11 15:36:31;;;;;;;1.10;1.00;;;;;;;;;;8325082;28;20025;-59
2022/09/11 15:40:31;;;;;;;1.70;1.00;;;;;;;;;;8326274;28;20033;-58
2022/09/11 15:44:33;;;;;;;1.08;0.80;;;;;;;;;;8326243;28;20020;-59
2022/09/11 15:48:33;;;;;;;1.08;0.90;;;;;;;;;;8325407;28;20037;-58
2022/09/11 15:52:34;;;;;;;0.90;0.90;;;;;;;;;;8322258;28;20028;-59
2022/09/11 15:56:34;;;;;;;2.05;1.00;;;;;;;;;;8325192;28;20170;-58
2022/09/11 16:00:35;;;;;;;1.00;1.00;;;;;;;;;;8322014;28;20052;-59
2022/09/11 16:04:35;;;;;;;1.07;1.03;;;;;;;;;;8326619;28;20295;-58
2022/09/11 16:08:35;;;;;;;1.20;1.10;;;;;;;;;;8327328;28;20047;-58
2022/09/11 16:12:36;;;;;;;1.00;1.00;;;;;;;;;;8323597;28;20599;-58
2022/09/11 16:21:31;;;;;;;1.00;0.90;;;;;;;;;;8266750;28;20021;-58
2022/09/11 16:25:36;;;;;;;1.90;1.00;;;;;;;;;;8318448;28;20033;-58
2022/09/11 16:29:37;;;;;;;0.93;0.93;;;;;;;;;;8320805;28;20043;-58
2022/09/11 16:33:42;;;;;;;1.80;1.10;;;;;;;;;;8314438;28;20127;-59
2022/09/11 16:37:43;;;;;;;1.13;1.08;;;;;;;;;;8319481;28;20037;-58
2022/09/11 16:41:43;;;;;;;3.40;1.07;;;;;;;;;;8317785;28;20025;-58
2022/09/11 16:45:51;;;;;;;1.23;1.00;;;;;;;;;;8317062;28;20040;-59
2022/09/11 16:49:52;;;;;;;1.02;0.95;;;;;;;;;;8317027;28;20218;-58
2022/09/11 16:53:53;;;;;;;2.72;0.90;;;;;;;;;;8316867;28;20110;-59
2022/09/11 16:57:53;;;;;;;0.90;0.90;;;;;;;;;;8315638;28;20028;-59
2022/09/11 17:01:56;;;;;;;1.50;1.05;;;;;;;;;;8308453;28;20045;-59
2022/09/11 17:05:56;;;;;;;1.17;1.17;;;;;;;;;;8312557;28;20037;-60
2022/09/11 17:09:56;;;;;;;1.80;1.70;;;;;;;;;;8315885;28;20581;-60
2022/09/11 17:13:58;;;;;;;1.85;1.58;;;;;;;;;;8313890;28;20029;-60
2022/09/11 17:17:59;;;;;;;2.47;1.58;;;;;;;;;;8314843;28;20557;-60
2022/09/11 17:22:00;;;;;;;1.23;1.23;;;;;;;;;;8314973;28;20021;-60
2022/09/11 17:26:04;;;;;;;2.88;1.48;;;;;;;;;;8321800;28;20052;-60
2022/09/11 17:30:05;;;;;;;1.40;1.30;;;;;;;;;;8319600;28;20146;-59
2022/09/11 17:34:06;;;;;;;3.03;1.90;;;;;;;;;;8324759;28;20441;-59
2022/09/11 17:38:06;;;;;;;2.15;1.67;;;;;;;;;;8324752;28;20037;-58
2022/09/11 17:42:07;;;;;;;1.70;1.60;;;;;;;;;;8321303;28;20052;-58
2022/09/11 17:46:09;;;;;;;1.70;1.60;;;;;;;;;;8321597;28;20045;-61
2022/09/11 17:50:09;;;;;;;2.00;1.80;;;;;;;;;;8316730;28;20055;-58
2022/09/11 17:54:09;;;;;;;2.33;1.95;;;;;;;;;;8320768;28;20028;-58
2022/09/11 17:58:10;;;;;;;2.25;1.98;;;;;;;;;;8318463;28;20022;-59
2022/09/11 18:02:13;;;;;;;2.10;2.00;;;;;;;;;;8315944;28;20578;-59
2022/09/11 18:06:18;;;;;;;3.53;2.90;;;;;;;;;;8315152;28;20022;-59
2022/09/11 18:10:21;;;;;;;3.67;2.92;;;;;;;;;;8318199;28;20386;-58
2022/09/11 18:14:21;;;;;;;2.60;2.35;;;;;;;;;;8316150;28;20056;-58
2022/09/11 18:18:22;;;;;;;3.10;2.83;;;;;;;;;;8319762;28;20532;-58
2022/09/11 18:22:22;;;;;;;3.17;2.58;;;;;;;;;;8323129;28;20108;-58
2022/09/11 18:26:25;;;;;;;3.03;2.78;;;;;;;;;;8326737;28;20082;-58
2022/09/11 18:30:25;;;;;;;3.22;2.63;;;;;;;;;;8320543;28;20120;-59
2022/09/11 18:34:26;;;;;;;2.10;2.00;;;;;;;;;;8323601;28;20044;-58
2022/09/11 18:38:28;;;;;;;3.05;2.33;;;;;;;;;;8324351;28;20567;-59
2022/09/11 18:42:28;;;;;;;2.28;2.10;;;;;;;;;;8322123;28;20013;-58
2022/09/11 18:46:30;;;;;;;2.40;2.20;;;;;;;;;;8324658;28;20109;-58
2022/09/11 18:50:30;;;;;;;4.50;2.58;;;;;;;;;;8320792;28;20016;-59
2022/09/11 18:54:32;;;;;;;3.40;2.70;;;;;;;;;;8322665;28;20639;-58
2022/09/11 18:58:34;;;;;;;2.75;2.55;;;;;;;;;;8321916;28;20033;-59
2022/09/11 19:02:35;;;;;;;3.08;2.78;;;;;;;;;;8319209;28;20483;-58
2022/09/11 19:06:37;;;;;;;2.50;2.30;;;;;;;;;;8320557;28;20082;-58
2022/09/11 19:10:37;;;;;;;5.40;4.07;;;;;;;;;;8325111;28;20017;-58
2022/09/11 19:14:37;;;;;;;4.68;3.55;;;;;;;;;;8321739;28;20081;-58
2022/09/11 19:18:38;;;;;;;6.63;3.93;;;;;;;;;;8324503;28;20040;-59
2022/09/11 19:22:38;;;;;;;3.95;3.13;;;;;;;;;;8318286;28;20453;-59
2022/09/11 19:26:39;;;;;;;3.80;2.80;;;;;;;;;;8323382;28;20376;-58
2022/09/11 19:30:42;;;;;;;2.72;2.50;;;;;;;;;;8321414;28;20061;-59
2022/09/11 19:34:42;;;;;;;4.03;2.63;;;;;;;;;;8319768;28;20035;-58
2022/09/11 19:38:43;;;;;;;4.75;2.60;;;;;;;;;;8325852;28;20592;-59
2022/09/11 19:42:44;;;;;;;5.03;2.75;;;;;;;;;;8327173;28;20108;-58
2022/09/11 19:46:44;;;;;;;4.13;3.22;;;;;;;;;;8326445;28;20110;-59
2022/09/11 19:50:45;;;;;;;2.58;2.38;;;;;;;;;;8326125;28;20017;-58
2022/09/11 19:54:45;;;;;;;3.10;2.83;;;;;;;;;;8324667;28;20032;-58
2022/09/11 19:58:45;;;;;;;2.83;2.63;;;;;;;;;;8327108;28;20025;-58
2022/09/11 20:02:45;;;;;;;2.95;2.20;;;;;;;;;;8322159;28;20039;-58
2022/09/11 20:06:46;;;;;;;2.97;2.70;;;;;;;;;;8324833;28;20399;-58
2022/09/11 20:10:47;;;;;;;2.72;2.53;;;;;;;;;;8323871;28;20380;-58
2022/09/11 20:14:47;;;;;;;3.10;2.70;;;;;;;;;;8324813;28;20129;-57
2022/09/11 20:18:49;;;;;;;3.65;2.83;;;;;;;;;;8325090;28;20430;-57
2022/09/11 20:22:49;;;;;;;3.67;2.60;;;;;;;;;;8326425;28;20043;-58
2022/09/11 20:26:51;;;;;;;3.73;2.40;;;;;;;;;;8326637;28;20028;-58
2022/09/11 20:30:51;;;;;;;3.42;2.72;;;;;;;;;;8322074;28;20041;-58
2022/09/11 20:34:51;;;;;;;2.90;2.70;;;;;;;;;;8325966;28;20159;-59
2022/09/11 20:38:54;;;;;;;3.17;2.63;;;;;;;;;;8322274;28;20172;-59
2022/09/11 20:42:54;;;;;;;5.13;3.05;;;;;;;;;;8325401;28;20024;-59
2022/09/11 20:46:54;;;;;;;3.55;2.83;;;;;;;;;;8322012;28;20049;-58
2022/09/11 20:50:59;;;;;;;3.67;2.78;;;;;;;;;;8322085;28;20892;-58
2022/09/11 20:54:59;;;;;;;2.85;2.65;;;;;;;;;;8322535;28;20265;-58
2022/09/11 20:58:59;;;;;;;4.47;3.08;;;;;;;;;;8323997;28;20031;-58
2022/09/11 21:03:00;;;;;;;2.80;2.60;;;;;;;;;;8322928;28;20032;-59
2022/09/11 21:07:00;;;;;;;2.92;2.72;;;;;;;;;;8321575;28;20909;-59
2022/09/11 21:11:01;;;;;;;3.05;2.60;;;;;;;;;;8324586;28;20017;-58
2022/09/11 21:15:02;;;;;;;3.28;2.30;;;;;;;;;;8321939;28;20426;-59
2022/09/11 21:19:02;;;;;;;3.67;2.50;;;;;;;;;;8320231;28;20064;-58
2022/09/11 21:23:03;;;;;;;3.72;2.42;;;;;;;;;;8321302;28;20021;-59
2022/09/11 21:27:03;;;;;;;3.88;2.58;;;;;;;;;;8321339;28;20037;-57
2022/09/11 21:31:04;;;;;;;2.78;2.50;;;;;;;;;;8321775;28;20065;-59
2022/09/11 21:35:05;;;;;;;2.70;2.50;;;;;;;;;;8325186;28;20040;-59
2022/09/11 21:39:05;;;;;;;2.90;2.47;;;;;;;;;;8322941;28;20048;-58
2022/09/11 21:43:05;;;;;;;5.07;2.33;;;;;;;;;;8321125;28;20526;-58
2022/09/11 21:47:05;;;;;;;2.35;2.25;;;;;;;;;;8322239;28;20067;-59
2022/09/11 21:51:09;;;;;;;3.30;3.00;;;;;;;;;;8321712;28;20139;-58
2022/09/11 21:55:10;;;;;;;3.78;2.50;;;;;;;;;;8326402;28;20592;-59
2022/09/11 21:59:10;;;;;;;5.88;3.00;;;;;;;;;;8324195;28;20050;-58
2022/09/11 22:03:11;;;;;;;3.28;2.97;;;;;;;;;;8328073;28;20060;-58
2022/09/11 22:07:11;;;;;;;4.05;3.00;;;;;;;;;;8327681;28;20039;-58
2022/09/11 22:11:12;;;;;;;4.20;3.40;;;;;;;;;;8330456;28;20029;-58
2022/09/11 22:15:13;;;;;;;3.03;2.80;;;;;;;;;;8326519;28;20594;-58
2022/09/11 22:19:13;;;;;;;3.40;3.05;;;;;;;;;;8328388;28;20029;-59
2022/09/11 22:23:15;;;;;;;4.18;2.92;;;;;;;;;;8329117;28;20071;-58
2022/09/11 22:27:15;;;;;;;3.00;2.80;;;;;;;;;;8333117;28;20029;-59
2022/09/11 22:31:17;;;;;;;2.97;2.67;;;;;;;;;;8326700;28;20067;-58
2022/09/11 22:35:17;;;;;;;2.72;2.53;;;;;;;;;;8330579;28;20369;-58
2022/09/11 22:39:17;;;;;;;2.85;2.60;;;;;;;;;;8330551;28;20637;-58
2022/09/11 22:43:18;;;;;;;2.58;2.38;;;;;;;;;;8327991;28;20053;-58
2022/09/11 22:47:18;;;;;;;2.80;2.60;;;;;;;;;;8328199;28;20045;-58
2022/09/11 22:51:18;;;;;;;3.25;2.95;;;;;;;;;;8327288;28;20866;-58
2022/09/11 22:55:18;;;;;;;3.53;2.90;;;;;;;;;;8328441;28;20037;-58
2022/09/11 22:59:18;;;;;;;2.97;2.78;;;;;;;;;;8328739;28;20083;-59
2022/09/11 23:03:19;;;;;;;3.45;3.15;;;;;;;;;;8324686;28;20037;-58
2022/09/11 23:07:19;;;;;;;4.60;3.10;;;;;;;;;;8324657;28;20678;-59
2022/09/11 23:11:19;;;;;;;3.33;3.03;;;;;;;;;;8325066;28;20579;-58
2022/09/11 23:15:20;;;;;;;3.50;3.20;;;;;;;;;;8327280;28;20076;-59
2022/09/11 23:19:21;;;;;;;4.28;3.53;;;;;;;;;;8324413;28;20028;-58
2022/09/11 23:23:21;;;;;;;3.63;3.17;;;;;;;;;;8326551;28;20036;-58
2022/09/11 23:27:22;;;;;;;3.88;3.35;;;;;;;;;;8325373;28;20032;-58
2022/09/11 23:31:25;;;;;;;3.92;3.55;;;;;;;;;;8326034;28;20101;-58
2022/09/11 23:35:26;;;;;;;4.13;3.83;;;;;;;;;;8329226;28;20494;-58
2022/09/11 23:39:26;;;;;;;4.43;4.03;;;;;;;;;;8323970;28;20519;-59
2022/09/11 23:43:26;;;;;;;5.82;4.60;;;;;;;;;;8323817;28;20049;-58
2022/09/11 23:47:26;;;;;;;4.37;3.97;;;;;;;;;;8325356;28;20052;-58
2022/09/11 23:51:27;;;;;;;4.75;4.00;;;;;;;;;;8326254;28;20287;-59
2022/09/11 23:55:27;;;;;;;4.37;3.90;;;;;;;;;;8325107;28;20066;-58
2022/09/11 23:59:27;;;;;;;4.40;4.00;;;;;;;;;;8324522;28;20288;-59
